KBEC/BEC METAR and TAF weather

Enter ICAO airport designator
Station Type Date Time Source
KBEC METAR 2023/12/04 19:35 UTC NOAA

KBEC 041935Z AUTO 21011KT 10SM CLR 12/M03 A3006 RMK AO2 T01151034 FZRANO


Station Type Date Time Source
KBEC Decoded METAR 2023/12/04 19:35 UTC NOAA

Station name not available
Dec 04, 2023 - 02:35 PM EST / 2023.12.04 1935 UTC
Wind: from the SSW (210 degrees) at 13 MPH (11 KT):0
Visibility: 10 mile(s):0
Sky conditions: clear
Temperature: 52.7 F (11.5 C)
Dew Point: 25.9 F (-3.4 C)
Relative Humidity: 35%
Pressure (altimeter): 30.06 in. Hg (1017 hPa)
ob: KBEC 041935Z AUTO 21011KT 10SM CLR 12/M03 A3006 RMK AO2 T01151034 FZRANO
cycle: 19

Station Type Date Time Source
KBEC TAF UTC NOAA

Error!

Example: see airport list